KAZO/AZO METAR and TAF weather

Enter ICAO airport designator
Station Type Date Time Source
KAZO METAR 2020/11/25 21:53 UTC NOAA

KAZO 252153Z 14005KT 2SM RA BR SCT005 BKN019 OVC027 09/07 A2974 RMK AO2 SLP075 P0004 T00890072


Station Type Date Time Source
KAZO Decoded METAR 2020/11/25 21:53 UTC NOAA

KALAMAZOO/BATTLE CREEK AIRPORT, MI, United States (KAZO) 42-14N 085-33W 272M
Nov 25, 2020 - 04:53 PM EST / 2020.11.25 2153 UTC
Wind: from the SE (140 degrees) at 6 MPH (5 KT):0
Visibility: 2 mile(s):0
Sky conditions: overcast
Weather: rain; mist
Precipitation last hour: 0.04 inches
Temperature: 48.0 F (8.9 C)
Dew Point: 45.0 F (7.2 C)
Relative Humidity: 89%
Pressure (altimeter): 29.74 in. Hg (1007 hPa)
ob: KAZO 252153Z 14005KT 2SM RA BR SCT005 BKN019 OVC027 09/07 A2974 RMK AO2 SLP075 P0004 T00890072
cycle: 22

Station Type Date Time Source
KAZO TAF 2020/11/25 18:36 UTC NOAA

TAF KAZO 251735Z 2518/2618 12005KT 2SM -RA BR OVC004
FM260000 03004KT 3/4SM -DZ BR OVC003
FM261500 28006KT 3SM BR OVC005

Example: see airport list